createdAt,value
2018-05-26T00:00:45.568Z,8.27
2018-05-26T00:03:12.292Z,9.60
2018-05-26T00:05:39.100Z,10.53
2018-05-26T00:08:05.811Z,11.10
2018-05-26T00:10:32.527Z,13.13
2018-05-26T00:12:59.247Z,11.03
2018-05-26T00:15:25.956Z,11.33
2018-05-26T00:17:52.652Z,11.30
2018-05-26T00:20:19.325Z,11.10
2018-05-26T00:22:51.622Z,10.90
2018-05-26T00:25:18.311Z,11.57
2018-05-26T00:27:45.033Z,10.57
2018-05-26T00:30:11.727Z,11.63
2018-05-26T00:32:38.427Z,10.30
2018-05-26T00:35:05.132Z,7.47
2018-05-26T00:37:31.945Z,9.20
2018-05-26T00:39:58.638Z,9.43
2018-05-26T00:42:25.355Z,9.33
2018-05-26T00:44:52.036Z,9.53
2018-05-26T00:47:18.733Z,11.17
2018-05-26T00:49:45.430Z,11.17
2018-05-26T00:52:12.137Z,13.37
2018-05-26T00:54:38.869Z,11.60
2018-05-26T00:57:05.600Z,11.83
2018-05-26T00:59:32.332Z,8.20
2018-05-26T01:01:59.016Z,11.77
2018-05-26T01:04:25.716Z,9.00
2018-05-26T01:06:52.364Z,12.80
2018-05-26T01:09:19.082Z,9.00
2018-05-26T01:11:45.763Z,7.27
2018-05-26T01:14:12.476Z,9.50
2018-05-26T01:16:39.165Z,9.73
2018-05-26T01:19:05.952Z,10.83
2018-05-26T01:21:32.767Z,11.27
2018-05-26T01:23:59.503Z,11.20
2018-05-26T01:26:26.208Z,11.57
2018-05-26T01:28:52.900Z,10.43
2018-05-26T01:31:19.595Z,8.17
2018-05-26T01:33:46.284Z,11.43
2018-05-26T01:36:12.979Z,7.33
2018-05-26T01:38:39.659Z,7.30
2018-05-26T01:41:06.467Z,10.17
2018-05-26T01:43:33.137Z,5.07
2018-05-26T01:45:59.817Z,5.87
2018-05-26T01:48:26.564Z,5.70
2018-05-26T01:50:53.271Z,9.20
2018-05-26T01:53:19.962Z,11.10
2018-05-26T01:55:46.785Z,9.77
2018-05-26T01:58:13.496Z,11.27
2018-05-26T02:00:40.188Z,11.57
2018-05-26T02:03:06.888Z,12.27
2018-05-26T02:05:33.575Z,11.30
2018-05-26T02:08:00.249Z,8.47
2018-05-26T02:10:27.138Z,9.20
2018-05-26T02:12:53.815Z,8.90
2018-05-26T02:15:20.528Z,3.70
2018-05-26T02:17:47.304Z,7.60
2018-05-26T02:20:14.076Z,5.80
2018-05-26T02:22:40.768Z,5.33
2018-05-26T02:25:07.460Z,6.70
2018-05-26T02:27:34.131Z,7.57
2018-05-26T02:30:00.888Z,10.23
2018-05-26T02:32:27.585Z,9.23
2018-05-26T02:34:54.288Z,8.77
2018-05-26T02:37:20.957Z,9.47
2018-05-26T02:39:47.668Z,7.87
2018-05-26T02:42:14.404Z,10.60
2018-05-26T02:44:41.104Z,6.10
2018-05-26T02:47:07.792Z,8.70
2018-05-26T02:49:34.472Z,9.43
2018-05-26T02:52:01.179Z,6.00
2018-05-26T02:54:27.857Z,7.70
2018-05-26T02:56:54.651Z,8.60
2018-05-26T02:59:21.323Z,10.43
2018-05-26T03:01:48.036Z,6.77
2018-05-26T03:04:20.475Z,13.60
2018-05-26T03:06:52.905Z,9.63
2018-05-26T03:09:25.302Z,9.20
2018-05-26T03:11:57.927Z,11.23
2018-05-26T03:14:30.320Z,14.27
2018-05-26T03:16:57.864Z,14.00
2018-05-26T03:19:24.547Z,9.70
2018-05-26T03:21:51.241Z,8.57
2018-05-26T03:24:17.927Z,11.00
2018-05-26T03:26:44.616Z,11.37
2018-05-26T03:29:11.323Z,10.47
2018-05-26T03:31:38.024Z,9.97
2018-05-26T03:34:04.772Z,7.20
2018-05-26T03:36:31.451Z,8.10
2018-05-26T03:38:58.147Z,8.43
2018-05-26T03:41:24.975Z,8.03
2018-05-26T03:43:51.661Z,8.33
2018-05-26T03:46:18.388Z,7.57
2018-05-26T03:48:45.056Z,7.70
2018-05-26T03:51:11.871Z,9.23
2018-05-26T03:53:38.659Z,10.17
2018-05-26T03:56:11.161Z,10.93
2018-05-26T03:58:43.608Z,9.77
2018-05-26T04:01:10.312Z,7.50
2018-05-26T04:03:36.992Z,12.60
2018-05-26T04:06:03.829Z,12.80
2018-05-26T04:08:30.505Z,15.13
2018-05-26T04:10:57.199Z,12.10
2018-05-26T04:13:23.913Z,8.57
2018-05-26T04:15:50.584Z,6.60
2018-05-26T04:18:17.276Z,8.97
2018-05-26T04:20:43.963Z,8.37
2018-05-26T04:23:10.644Z,9.70
2018-05-26T04:25:37.356Z,10.40
2018-05-26T04:28:04.076Z,12.87
2018-05-26T04:30:30.769Z,10.67
2018-05-26T04:32:57.472Z,13.13
2018-05-26T04:35:24.188Z,12.20
2018-05-26T04:37:50.904Z,9.57
2018-05-26T04:40:17.575Z,8.90
2018-05-26T04:42:44.284Z,8.53
2018-05-26T04:45:10.960Z,9.90
2018-05-26T04:47:37.663Z,10.80
2018-05-26T04:50:04.352Z,15.20
2018-05-26T04:52:31.121Z,13.70
2018-05-26T04:54:57.819Z,13.43
2018-05-26T04:57:24.579Z,14.50
2018-05-26T04:59:51.293Z,13.47
2018-05-26T05:02:17.987Z,13.23
2018-05-26T05:04:44.739Z,13.47
2018-05-26T05:07:11.431Z,12.33
2018-05-26T05:09:38.107Z,12.60
2018-05-26T05:12:04.817Z,13.47
2018-05-26T05:14:31.520Z,14.00
2018-05-26T05:16:58.284Z,14.77
2018-05-26T05:19:25.184Z,15.77
2018-05-26T05:21:51.895Z,16.43
2018-05-26T05:24:18.649Z,15.60
2018-05-26T05:26:45.359Z,14.40
2018-05-26T05:29:12.067Z,14.00
2018-05-26T05:31:38.822Z,14.10
2018-05-26T05:34:05.524Z,16.03
2018-05-26T05:36:32.215Z,14.73
2018-05-26T05:38:58.983Z,14.93
2018-05-26T05:41:25.667Z,13.90
2018-05-26T05:43:52.371Z,14.17
2018-05-26T05:46:19.052Z,12.13
2018-05-26T05:48:45.761Z,13.53
2018-05-26T05:51:12.488Z,11.93
2018-05-26T05:53:39.194Z,10.33
2018-05-26T05:56:05.888Z,10.77
2018-05-26T05:58:32.583Z,11.60
2018-05-26T06:00:59.287Z,11.30
2018-05-26T06:03:25.973Z,9.67
2018-05-26T06:05:52.716Z,10.97
2018-05-26T06:08:19.420Z,10.80
2018-05-26T06:10:46.144Z,11.10
2018-05-26T06:13:12.835Z,10.17
2018-05-26T06:15:39.547Z,9.70
2018-05-26T06:18:06.239Z,10.60
2018-05-26T06:20:32.947Z,9.13
2018-05-26T06:22:59.629Z,9.60
2018-05-26T06:25:26.335Z,8.80
2018-05-26T06:27:53.017Z,9.00
2018-05-26T06:30:19.783Z,9.10
2018-05-26T06:32:46.471Z,9.83
2018-05-26T06:35:13.172Z,9.23
2018-05-26T06:37:39.975Z,8.30
2018-05-26T06:40:06.768Z,8.40
2018-05-26T06:42:33.473Z,9.90
2018-05-26T06:45:00.152Z,9.17
2018-05-26T06:47:26.864Z,8.83
2018-05-26T06:49:54.412Z,7.77
2018-05-26T06:52:21.116Z,7.50
2018-05-26T06:54:47.827Z,8.50
2018-05-26T06:57:14.566Z,6.90
2018-05-26T06:59:41.236Z,6.70
2018-05-26T07:02:07.979Z,6.73
2018-05-26T07:04:34.688Z,6.80
2018-05-26T07:07:01.358Z,5.90
2018-05-26T07:09:28.056Z,6.03
2018-05-26T07:11:54.816Z,6.03
2018-05-26T07:14:21.496Z,6.20
2018-05-26T07:16:48.172Z,5.80
2018-05-26T07:19:14.895Z,5.97
2018-05-26T07:21:41.579Z,6.70
2018-05-26T07:24:08.257Z,5.90
2018-05-26T07:26:35.020Z,7.30
2018-05-26T07:29:01.720Z,8.83
2018-05-26T07:31:28.421Z,6.80
2018-05-26T07:33:55.117Z,7.00
2018-05-26T07:36:21.796Z,6.97
2018-05-26T07:38:48.484Z,6.37
2018-05-26T07:41:15.179Z,7.10
2018-05-26T07:43:41.864Z,7.27
2018-05-26T07:46:08.567Z,7.27
2018-05-26T07:48:35.358Z,7.87
2018-05-26T07:51:02.080Z,7.90
2018-05-26T07:53:28.809Z,7.30
2018-05-26T07:55:55.472Z,7.77
2018-05-26T07:58:22.227Z,7.07
2018-05-26T08:00:48.848Z,6.90
2018-05-26T08:03:15.532Z,7.80
2018-05-26T08:05:42.232Z,7.67
2018-05-26T08:08:08.936Z,7.03
2018-05-26T08:10:35.672Z,7.40
2018-05-26T08:13:02.445Z,8.27
2018-05-26T08:15:29.133Z,6.93
2018-05-26T08:17:55.806Z,6.80
2018-05-26T08:20:22.542Z,6.63
2018-05-26T08:22:49.215Z,7.17
2018-05-26T08:25:15.919Z,6.60
2018-05-26T08:27:42.629Z,7.23
2018-05-26T08:30:09.315Z,6.73
2018-05-26T08:32:36.032Z,7.07
2018-05-26T08:35:02.720Z,6.77
2018-05-26T08:37:29.441Z,6.43
2018-05-26T08:39:56.208Z,5.90
2018-05-26T08:42:22.911Z,6.40
2018-05-26T08:44:49.571Z,5.47
2018-05-26T08:47:16.273Z,6.53
2018-05-26T08:49:42.976Z,6.30
2018-05-26T08:52:09.670Z,6.23
2018-05-26T08:54:36.403Z,7.43
2018-05-26T08:57:03.130Z,5.87
2018-05-26T08:59:29.828Z,6.13
2018-05-26T09:01:56.527Z,6.20
2018-05-26T09:04:23.292Z,6.17
2018-05-26T09:06:49.991Z,6.23
2018-05-26T09:09:16.757Z,5.73
2018-05-26T09:11:43.463Z,6.10
2018-05-26T09:14:10.327Z,5.73
2018-05-26T09:16:37.011Z,6.40
2018-05-26T09:19:03.844Z,6.67
2018-05-26T09:21:30.528Z,7.97
2018-05-26T09:23:57.240Z,6.83
2018-05-26T09:26:23.923Z,5.03
2018-05-26T09:28:50.630Z,5.70
2018-05-26T09:31:17.363Z,5.33
2018-05-26T09:33:44.048Z,6.70
2018-05-26T09:36:10.769Z,5.67
2018-05-26T09:38:37.464Z,5.83
2018-05-26T09:41:04.288Z,4.43
2018-05-26T09:43:31.004Z,4.60
2018-05-26T09:45:57.698Z,4.40
2018-05-26T09:48:24.379Z,5.17
2018-05-26T09:50:51.085Z,4.37
2018-05-26T09:53:17.763Z,4.83
2018-05-26T09:55:44.476Z,4.77
2018-05-26T09:58:11.205Z,18.57
2018-05-26T10:00:37.936Z,4.13
2018-05-26T10:03:04.604Z,2.80
2018-05-26T10:05:31.443Z,3.60
2018-05-26T10:07:58.122Z,4.33
2018-05-26T10:10:24.912Z,4.03
2018-05-26T10:12:51.613Z,3.83
2018-05-26T10:15:18.291Z,3.30
2018-05-26T10:17:45.100Z,3.73
2018-05-26T10:20:11.785Z,3.60
2018-05-26T10:22:38.494Z,3.40
2018-05-26T10:25:05.305Z,3.70
2018-05-26T10:27:32.045Z,4.23
2018-05-26T10:29:58.725Z,6.90
2018-05-26T10:32:25.456Z,3.77
2018-05-26T10:34:52.130Z,3.30
2018-05-26T10:37:18.800Z,4.80
2018-05-26T10:39:45.712Z,3.90
2018-05-26T10:42:12.527Z,5.70
2018-05-26T10:44:39.283Z,4.00
2018-05-26T10:47:06.007Z,3.43
2018-05-26T10:49:32.691Z,5.93
2018-05-26T10:51:59.376Z,4.40
2018-05-26T10:54:26.075Z,3.60
2018-05-26T10:56:52.759Z,3.63
2018-05-26T10:59:19.471Z,4.07
2018-05-26T11:01:46.164Z,4.33
2018-05-26T11:04:12.954Z,4.23
2018-05-26T11:06:48.659Z,4.13
2018-05-26T11:09:15.366Z,3.93
2018-05-26T11:11:42.068Z,3.93
2018-05-26T11:14:08.763Z,3.87
2018-05-26T11:16:35.517Z,3.53
2018-05-26T11:19:02.211Z,3.63
2018-05-26T11:21:28.925Z,3.90
2018-05-26T11:23:55.695Z,3.80
2018-05-26T11:26:22.395Z,3.87
2018-05-26T11:28:49.076Z,3.10
2018-05-26T11:31:15.780Z,3.40
2018-05-26T11:33:42.488Z,3.60
2018-05-26T11:36:09.213Z,3.47
2018-05-26T11:38:35.917Z,3.43
2018-05-26T11:41:02.603Z,2.90
2018-05-26T11:43:29.327Z,3.63
2018-05-26T11:45:55.994Z,3.83
2018-05-26T11:48:22.698Z,3.30
2018-05-26T11:50:49.406Z,3.37
2018-05-26T11:53:16.159Z,3.23
2018-05-26T11:55:42.835Z,3.20
2018-05-26T11:58:09.545Z,5.00
2018-05-26T12:00:36.257Z,3.40
2018-05-26T12:03:02.936Z,3.60
2018-05-26T12:05:29.658Z,3.50
2018-05-26T12:07:56.338Z,3.53
2018-05-26T12:10:23.045Z,5.07
2018-05-26T12:12:49.730Z,3.73
2018-05-26T12:15:16.490Z,3.70
2018-05-26T12:17:43.180Z,4.10
2018-05-26T12:20:09.884Z,3.73
2018-05-26T12:22:36.588Z,3.23
2018-05-26T12:25:03.300Z,3.90
2018-05-26T12:27:30.062Z,5.00
2018-05-26T12:29:56.748Z,4.60
2018-05-26T12:32:23.445Z,4.17
2018-05-26T12:34:50.141Z,4.23
2018-05-26T12:37:16.890Z,3.70
2018-05-26T12:39:43.587Z,4.90
2018-05-26T12:42:10.269Z,4.53
2018-05-26T12:44:36.968Z,4.10
2018-05-26T12:47:03.657Z,5.67
2018-05-26T12:49:30.345Z,3.93
2018-05-26T12:51:57.048Z,4.83
2018-05-26T12:54:23.749Z,4.10
2018-05-26T12:56:50.451Z,4.30
2018-05-26T12:59:18.078Z,4.97
2018-05-26T13:01:44.780Z,4.37
2018-05-26T13:04:11.474Z,4.93
2018-05-26T13:06:38.175Z,4.10
2018-05-26T13:09:04.860Z,4.50
2018-05-26T13:11:31.538Z,4.90
2018-05-26T13:13:58.244Z,5.03
2018-05-26T13:16:24.928Z,4.70
2018-05-26T13:18:51.641Z,4.53
2018-05-26T13:21:18.465Z,4.57
2018-05-26T13:23:45.151Z,5.70
2018-05-26T13:26:11.849Z,5.83
2018-05-26T13:28:38.564Z,4.20
2018-05-26T13:31:05.340Z,4.53
2018-05-26T13:33:32.048Z,3.93
2018-05-26T13:35:58.847Z,4.73
2018-05-26T13:38:25.550Z,4.03
2018-05-26T13:40:52.278Z,4.03
2018-05-26T13:43:18.964Z,6.33
2018-05-26T13:45:45.694Z,4.40
2018-05-26T13:48:12.368Z,4.60
2018-05-26T13:50:39.071Z,4.60
2018-05-26T13:53:05.779Z,3.80
2018-05-26T13:55:32.475Z,4.93
2018-05-26T13:57:59.132Z,4.23
2018-05-26T14:00:25.824Z,5.20
2018-05-26T14:02:52.576Z,4.47
2018-05-26T14:05:19.281Z,4.40
2018-05-26T14:07:46.008Z,7.87
2018-05-26T14:10:12.716Z,4.20
2018-05-26T14:12:39.451Z,4.03
2018-05-26T14:15:06.123Z,5.60
2018-05-26T14:17:32.824Z,4.17
2018-05-26T14:19:59.515Z,4.87
2018-05-26T14:22:26.287Z,4.90
2018-05-26T14:24:52.984Z,4.87
2018-05-26T14:27:19.680Z,4.37
2018-05-26T14:29:46.355Z,4.00
2018-05-26T14:32:13.054Z,4.47
2018-05-26T14:34:39.756Z,4.50
2018-05-26T14:37:06.456Z,3.60
2018-05-26T14:39:33.161Z,4.53
2018-05-26T14:41:59.860Z,4.50
2018-05-26T14:44:26.636Z,4.60
2018-05-26T14:46:53.337Z,4.57
2018-05-26T14:49:20.157Z,4.57
2018-05-26T14:51:46.839Z,9.30
2018-05-26T14:54:13.532Z,4.17
2018-05-26T14:56:40.265Z,5.10
2018-05-26T14:59:06.959Z,4.67
2018-05-26T15:01:33.727Z,4.10
2018-05-26T15:04:00.475Z,4.00
2018-05-26T15:06:27.148Z,5.93
2018-05-26T15:08:53.841Z,4.37
2018-05-26T15:11:20.517Z,4.50
2018-05-26T15:13:47.220Z,4.90
2018-05-26T15:16:13.940Z,4.60
2018-05-26T15:18:40.642Z,4.90
2018-05-26T15:21:07.349Z,4.23
2018-05-26T15:23:34.042Z,4.23
2018-05-26T15:26:00.747Z,4.30
2018-05-26T15:28:27.423Z,4.50
2018-05-26T15:30:54.242Z,4.83
2018-05-26T15:33:20.936Z,5.90
2018-05-26T15:35:47.660Z,4.53
2018-05-26T15:38:14.335Z,7.23
2018-05-26T15:40:41.050Z,4.73
2018-05-26T15:43:07.730Z,5.13
2018-05-26T15:45:34.423Z,5.03
2018-05-26T15:48:01.165Z,5.50
2018-05-26T15:50:27.855Z,5.03
2018-05-26T15:52:54.599Z,5.10
2018-05-26T15:55:21.357Z,5.37
2018-05-26T15:57:48.059Z,5.37
2018-05-26T16:00:14.754Z,6.10
2018-05-26T16:02:41.460Z,5.17
2018-05-26T16:05:08.128Z,6.33
2018-05-26T16:07:34.816Z,4.90
2018-05-26T16:10:01.512Z,4.90
2018-05-26T16:12:28.284Z,4.80
2018-05-26T16:14:54.995Z,5.70
2018-05-26T16:17:21.811Z,5.20
2018-05-26T16:19:48.523Z,5.47
2018-05-26T16:22:15.215Z,6.23
2018-05-26T16:24:41.912Z,5.40
2018-05-26T16:27:08.592Z,7.97
2018-05-26T16:29:35.268Z,5.87
2018-05-26T16:32:01.959Z,5.17
2018-05-26T16:34:28.650Z,5.00
2018-05-26T16:36:55.345Z,5.30
2018-05-26T16:39:22.043Z,4.73
2018-05-26T16:41:48.761Z,5.30
2018-05-26T16:44:15.436Z,5.10
2018-05-26T16:46:42.137Z,5.47
2018-05-26T16:49:08.893Z,4.57
2018-05-26T16:51:35.596Z,5.97
2018-05-26T16:54:02.416Z,5.50
2018-05-26T16:56:29.140Z,6.03
2018-05-26T16:58:55.841Z,5.97
2018-05-26T17:01:22.532Z,9.63
2018-05-26T17:03:49.264Z,5.47
2018-05-26T17:06:15.960Z,5.80
2018-05-26T17:08:42.657Z,5.60
2018-05-26T17:11:09.323Z,5.00
2018-05-26T17:13:36.096Z,6.00
2018-05-26T17:16:02.791Z,5.90
2018-05-26T17:18:29.465Z,5.13
2018-05-26T17:20:56.183Z,5.63
2018-05-26T17:23:22.900Z,8.00
2018-05-26T17:25:49.616Z,4.67
2018-05-26T17:28:16.311Z,5.00
2018-05-26T17:30:42.985Z,5.97
2018-05-26T17:33:09.666Z,5.50
2018-05-26T17:35:36.432Z,6.03
2018-05-26T17:38:03.108Z,5.47
2018-05-26T17:40:29.909Z,6.27
2018-05-26T17:42:56.596Z,5.10
2018-05-26T17:45:23.308Z,5.53
2018-05-26T17:47:50.032Z,6.40
2018-05-26T17:50:16.749Z,6.40
2018-05-26T17:52:43.428Z,5.73
2018-05-26T17:55:10.203Z,5.07
2018-05-26T17:57:36.903Z,5.33
2018-05-26T18:00:03.707Z,7.17
2018-05-26T18:02:30.400Z,6.70
2018-05-26T18:04:57.104Z,5.60
2018-05-26T18:07:23.788Z,5.80
2018-05-26T18:09:50.527Z,6.00
2018-05-26T18:12:17.224Z,6.37
2018-05-26T18:14:43.932Z,5.43
2018-05-26T18:17:10.628Z,5.50
2018-05-26T18:19:37.322Z,5.80
2018-05-26T18:22:04.066Z,5.90
2018-05-26T18:24:31.351Z,5.40
2018-05-26T18:26:58.044Z,5.80
2018-05-26T18:29:24.773Z,6.53
2018-05-26T18:31:51.481Z,6.50
2018-05-26T18:34:18.161Z,5.60
2018-05-26T18:36:44.909Z,4.90
2018-05-26T18:39:11.579Z,5.73
2018-05-26T18:41:38.256Z,5.70
2018-05-26T18:44:04.951Z,6.93
2018-05-26T18:46:34.663Z,6.30
2018-05-26T18:49:01.413Z,6.00
2018-05-26T18:51:28.130Z,6.07
2018-05-26T18:53:54.826Z,5.93
2018-05-26T18:56:21.537Z,6.87
2018-05-26T18:58:48.241Z,5.80
2018-05-26T19:01:14.949Z,7.00
2018-05-26T19:03:41.663Z,6.10
2018-05-26T19:06:08.349Z,7.10
2018-05-26T19:08:35.065Z,5.50
2018-05-26T19:11:01.795Z,5.43
2018-05-26T19:13:28.511Z,6.77
2018-05-26T19:15:55.253Z,6.27
2018-05-26T19:18:21.961Z,6.13
2018-05-26T19:20:48.681Z,6.07
2018-05-26T19:23:15.363Z,5.60
2018-05-26T19:25:42.094Z,6.00
2018-05-26T19:28:08.795Z,6.50
2018-05-26T19:30:35.518Z,5.70
2018-05-26T19:33:02.228Z,5.47
2018-05-26T19:35:28.925Z,5.50
2018-05-26T19:37:55.732Z,6.47
2018-05-26T19:40:22.425Z,6.40
2018-05-26T19:42:49.157Z,6.33
2018-05-26T19:45:15.844Z,5.70
2018-05-26T19:47:42.557Z,6.57
2018-05-26T19:50:09.278Z,6.13
2018-05-26T19:52:35.994Z,6.20
2018-05-26T19:55:02.668Z,6.60
2018-05-26T19:57:29.355Z,6.67
2018-05-26T19:59:56.110Z,6.27
2018-05-26T20:02:22.789Z,6.00
2018-05-26T20:04:49.516Z,6.37
2018-05-26T20:07:16.187Z,6.10
2018-05-26T20:09:42.956Z,5.83
2018-05-26T20:12:09.719Z,6.47
2018-05-26T20:14:36.406Z,6.30
2018-05-26T20:17:03.235Z,5.77
2018-05-26T20:19:29.970Z,7.77
2018-05-26T20:21:56.690Z,5.87
2018-05-26T20:24:23.384Z,7.00
2018-05-26T20:26:50.069Z,6.40
2018-05-26T20:29:16.782Z,7.33
2018-05-26T20:31:43.475Z,6.37
2018-05-26T20:34:10.175Z,6.60
2018-05-26T20:36:36.957Z,6.20
2018-05-26T20:39:03.635Z,7.33
2018-05-26T20:41:30.315Z,10.53
2018-05-26T20:43:57.203Z,6.90
2018-05-26T20:46:23.989Z,7.03
2018-05-26T20:48:50.715Z,6.93
2018-05-26T20:51:17.396Z,7.47
2018-05-26T20:53:44.108Z,8.43
2018-05-26T20:56:10.856Z,6.97
2018-05-26T20:58:37.571Z,7.87
2018-05-26T21:01:04.321Z,7.90
2018-05-26T21:03:31.042Z,8.10
2018-05-26T21:05:57.843Z,7.47
2018-05-26T21:08:24.534Z,7.50
2018-05-26T21:10:51.380Z,8.60
2018-05-26T21:13:18.057Z,7.43
2018-05-26T21:15:44.789Z,7.67
2018-05-26T21:18:11.478Z,7.87
2018-05-26T21:20:38.167Z,7.70
2018-05-26T21:23:04.917Z,7.60
2018-05-26T21:25:31.605Z,7.40
2018-05-26T21:27:58.303Z,7.53
2018-05-26T21:30:25.021Z,8.87
2018-05-26T21:32:51.718Z,7.73
2018-05-26T21:35:18.428Z,6.70
2018-05-26T21:37:45.130Z,7.70
2018-05-26T21:40:11.826Z,7.77
2018-05-26T21:42:38.536Z,6.87
2018-05-26T21:45:05.225Z,6.63
2018-05-26T21:47:31.976Z,6.70
2018-05-26T21:49:58.677Z,8.20
2018-05-26T21:52:25.387Z,7.63
2018-05-26T21:54:52.064Z,7.17
2018-05-26T21:57:18.762Z,7.50
2018-05-26T21:59:45.444Z,6.43
2018-05-26T22:02:12.158Z,7.07
2018-05-26T22:04:38.881Z,7.00
2018-05-26T22:07:05.581Z,7.30
2018-05-26T22:09:32.278Z,6.97
2018-05-26T22:11:59.095Z,8.77
2018-05-26T22:14:25.906Z,6.90
2018-05-26T22:16:52.530Z,7.77
2018-05-26T22:19:19.236Z,7.27
2018-05-26T22:21:45.940Z,8.63
2018-05-26T22:24:12.649Z,7.30
2018-05-26T22:26:39.341Z,7.90
2018-05-26T22:29:06.048Z,8.03
2018-05-26T22:31:32.729Z,7.97
2018-05-26T22:33:59.578Z,7.33
2018-05-26T22:36:26.252Z,8.20
2018-05-26T22:38:52.945Z,7.53
2018-05-26T22:41:19.632Z,8.23
2018-05-26T22:43:46.341Z,7.40
2018-05-26T22:46:13.018Z,8.87
2018-05-26T22:48:39.718Z,8.33
2018-05-26T22:51:06.564Z,9.43
2018-05-26T22:53:33.287Z,8.50
2018-05-26T22:55:59.961Z,7.60
2018-05-26T22:58:26.683Z,7.27
2018-05-26T23:00:53.403Z,7.90
2018-05-26T23:03:20.112Z,8.27
2018-05-26T23:05:46.898Z,8.43
2018-05-26T23:08:13.518Z,7.70
2018-05-26T23:10:40.201Z,8.40
2018-05-26T23:13:07.066Z,7.60
2018-05-26T23:15:33.762Z,8.03
2018-05-26T23:18:00.452Z,8.00
2018-05-26T23:20:27.171Z,8.70
2018-05-26T23:22:53.859Z,7.50
2018-05-26T23:25:20.540Z,8.00
2018-05-26T23:27:47.237Z,8.00
2018-05-26T23:30:13.933Z,9.40
2018-05-26T23:32:40.620Z,8.50
2018-05-26T23:35:07.295Z,7.90
2018-05-26T23:37:34.001Z,8.83
2018-05-26T23:40:00.691Z,8.33
2018-05-26T23:42:27.393Z,7.87
2018-05-26T23:44:54.087Z,8.60
2018-05-26T23:47:20.759Z,8.40
2018-05-26T23:49:47.448Z,9.27
2018-05-26T23:52:14.120Z,8.70
2018-05-26T23:54:40.816Z,7.50
2018-05-26T23:57:07.492Z,8.60
2018-05-26T23:59:34.195Z,9.20
